Time;durP1;ratioP1;P1;durP2;ratioP2;P2;SDS_P1;SDS_P2;PMS_P1;PMS_P2;Temp;Humidity;BMP_temperature;BMP_pressure;BME280_temperature;BME280_humidity;BME280_pressure;Samples;Min_cycle;Max_cycle;Signal;HPM_P1;HPM_P2
2022/04/06 00:01:27;;;;;;;308.52;67.97;;;;;;;;;;5103819;28;20199;-90
2022/04/06 00:03:54;;;;;;;311.23;69.78;;;;;;;;;;5101433;28;20225;-90
2022/04/06 00:06:21;;;;;;;308.33;69.20;;;;;;;;;;5101096;28;20333;-90
2022/04/06 00:08:47;;;;;;;309.27;69.43;;;;;;;;;;5103258;28;20201;-89
2022/04/06 00:11:14;;;;;;;301.10;65.53;;;;;;;;;;5103558;28;20199;-89
2022/04/06 00:13:40;;;;;;;317.00;70.40;;;;;;;;;;5102732;28;20252;-89
2022/04/06 00:16:07;;;;;;;307.88;66.70;;;;;;;;;;5102772;28;20692;-89
2022/04/06 00:18:35;;;;;;;304.90;66.22;;;;;;;;;;5103227;28;20796;-89
2022/04/06 00:21:01;;;;;;;309.17;68.10;;;;;;;;;;5102620;28;20202;-90
2022/04/06 00:23:27;;;;;;;310.95;66.95;;;;;;;;;;5102525;28;20224;-89
2022/04/06 00:25:55;;;;;;;314.42;67.90;;;;;;;;;;5102374;28;20262;-90
2022/04/06 00:28:21;;;;;;;306.17;67.07;;;;;;;;;;5102887;28;20201;-89
2022/04/06 00:30:48;;;;;;;310.85;67.93;;;;;;;;;;5103753;28;20224;-89
2022/04/06 00:33:15;;;;;;;305.05;66.45;;;;;;;;;;5103056;28;20312;-89
2022/04/06 00:35:42;;;;;;;308.52;67.47;;;;;;;;;;5102463;28;20199;-89
2022/04/06 00:38:10;;;;;;;309.55;65.03;;;;;;;;;;5102517;28;20202;-90
2022/04/06 00:40:37;;;;;;;311.65;66.63;;;;;;;;;;5102443;28;20206;-90
2022/04/06 00:43:06;;;;;;;310.08;68.00;;;;;;;;;;5102015;28;20217;-89
2022/04/06 00:45:32;;;;;;;305.10;66.22;;;;;;;;;;5101879;28;20199;-89
2022/04/06 00:47:59;;;;;;;318.67;68.18;;;;;;;;;;5101637;28;20198;-89
2022/04/06 00:50:25;;;;;;;309.63;68.03;;;;;;;;;;5101427;28;20203;-89
2022/04/06 00:52:57;;;;;;;313.85;67.95;;;;;;;;;;5101963;28;20226;-90
2022/04/06 00:55:24;;;;;;;307.02;65.53;;;;;;;;;;5106551;28;20249;-89
2022/04/06 00:57:51;;;;;;;312.77;69.30;;;;;;;;;;5106965;28;20203;-89
2022/04/06 01:00:18;;;;;;;311.08;67.65;;;;;;;;;;5107046;28;20209;-89
2022/04/06 01:02:45;;;;;;;316.27;70.65;;;;;;;;;;5107243;28;20203;-89
2022/04/06 01:05:13;;;;;;;311.58;66.97;;;;;;;;;;5106775;28;20191;-89
2022/04/06 01:07:39;;;;;;;317.77;68.65;;;;;;;;;;5106812;28;20224;-90
2022/04/06 01:10:08;;;;;;;307.05;66.75;;;;;;;;;;5106533;28;20276;-89
2022/04/06 01:12:35;;;;;;;312.95;67.18;;;;;;;;;;5106987;28;20252;-90
2022/04/06 01:15:02;;;;;;;303.30;65.70;;;;;;;;;;5106560;28;20218;-90
2022/04/06 01:17:32;;;;;;;316.52;67.55;;;;;;;;;;5106616;28;20626;-90
2022/04/06 01:20:00;;;;;;;312.98;68.35;;;;;;;;;;5106977;28;20224;-90
2022/04/06 01:22:28;;;;;;;310.00;67.32;;;;;;;;;;5106965;28;20203;-89
2022/04/06 01:24:55;;;;;;;305.83;67.80;;;;;;;;;;5106061;28;20202;-90
2022/04/06 01:27:21;;;;;;;305.55;69.13;;;;;;;;;;5105553;28;20202;-90
2022/04/06 01:29:48;;;;;;;311.02;68.35;;;;;;;;;;5106047;28;20194;-89
2022/04/06 01:32:16;;;;;;;307.60;69.18;;;;;;;;;;5105649;28;20675;-89
2022/04/06 01:34:43;;;;;;;297.20;64.40;;;;;;;;;;5105706;28;20226;-89
2022/04/06 01:37:10;;;;;;;311.00;68.15;;;;;;;;;;5105411;28;20198;-89
2022/04/06 01:39:39;;;;;;;314.80;69.25;;;;;;;;;;5103839;28;20264;-89
2022/04/06 01:42:07;;;;;;;311.15;66.82;;;;;;;;;;5104129;28;20217;-90
2022/04/06 01:44:33;;;;;;;306.23;65.18;;;;;;;;;;5106144;28;20195;-89
2022/04/06 01:47:00;;;;;;;296.38;63.03;;;;;;;;;;5106286;28;20237;-90
2022/04/06 01:52:13;;;;;;;305.95;66.22;;;;;;;;;;5103869;28;20205;-89
2022/04/06 01:54:42;;;;;;;302.42;65.50;;;;;;;;;;5106179;28;20221;-89
2022/04/06 01:57:08;;;;;;;301.27;65.47;;;;;;;;;;5106025;28;20228;-89
2022/04/06 01:59:35;;;;;;;304.33;65.28;;;;;;;;;;5105043;28;20209;-89
2022/04/06 02:02:01;;;;;;;308.40;67.82;;;;;;;;;;5104478;28;20256;-89
2022/04/06 02:04:28;;;;;;;308.85;66.43;;;;;;;;;;5106307;28;20252;-89
2022/04/06 02:06:54;;;;;;;300.38;64.88;;;;;;;;;;5105118;28;20199;-90
2022/04/06 02:09:21;;;;;;;301.92;65.57;;;;;;;;;;5103044;28;20216;-89
2022/04/06 02:11:49;;;;;;;313.42;68.63;;;;;;;;;;5103275;28;20388;-89
2022/04/06 02:14:17;;;;;;;306.35;67.55;;;;;;;;;;5105552;28;20219;-89
2022/04/06 02:16:44;;;;;;;307.52;65.47;;;;;;;;;;5105895;28;20847;-89
2022/04/06 02:19:10;;;;;;;301.98;66.55;;;;;;;;;;5104983;28;20276;-89
2022/04/06 02:21:37;;;;;;;307.80;68.20;;;;;;;;;;5105161;28;20202;-89
2022/04/06 02:24:04;;;;;;;307.80;67.65;;;;;;;;;;5104354;28;20217;-89
2022/04/06 02:26:30;;;;;;;305.70;66.03;;;;;;;;;;5103929;28;20203;-89
2022/04/06 02:29:00;;;;;;;310.65;66.65;;;;;;;;;;5104835;28;20191;-90
2022/04/06 02:31:26;;;;;;;308.20;66.40;;;;;;;;;;5105194;28;20221;-89
2022/04/06 02:33:53;;;;;;;311.75;66.03;;;;;;;;;;5104503;28;20248;-89
2022/04/06 02:36:19;;;;;;;305.02;64.93;;;;;;;;;;5087190;28;20545;-89
2022/04/06 02:38:47;;;;;;;302.35;66.45;;;;;;;;;;5087316;28;20199;-89
2022/04/06 02:41:13;;;;;;;305.38;67.82;;;;;;;;;;5104335;28;20202;-90
2022/04/06 02:43:40;;;;;;;302.48;66.95;;;;;;;;;;5104669;28;20198;-89
2022/04/06 02:46:08;;;;;;;298.00;64.18;;;;;;;;;;5104633;28;20216;-90
2022/04/06 02:48:34;;;;;;;316.48;66.35;;;;;;;;;;5105056;28;20312;-90
2022/04/06 02:51:01;;;;;;;294.95;62.17;;;;;;;;;;5105030;28;20203;-90
2022/04/06 02:53:27;;;;;;;300.95;66.47;;;;;;;;;;5104673;28;20276;-90
2022/04/06 02:55:54;;;;;;;312.77;69.55;;;;;;;;;;5094780;28;20199;-90
2022/04/06 02:58:20;;;;;;;301.58;66.13;;;;;;;;;;5084208;28;20229;-90
2022/04/06 03:00:47;;;;;;;297.08;62.15;;;;;;;;;;5102996;28;20203;-90
2022/04/06 03:03:15;;;;;;;305.42;66.20;;;;;;;;;;5103320;28;20203;-89
2022/04/06 03:05:41;;;;;;;303.65;66.95;;;;;;;;;;5102269;28;20232;-90
2022/04/06 03:08:08;;;;;;;295.58;63.28;;;;;;;;;;5103412;28;20198;-89
2022/04/06 03:10:35;;;;;;;296.10;63.47;;;;;;;;;;5104173;28;20202;-89
2022/04/06 03:13:01;;;;;;;309.73;64.68;;;;;;;;;;5104704;28;20222;-89
2022/04/06 03:15:28;;;;;;;295.95;62.90;;;;;;;;;;5104862;28;20220;-89
2022/04/06 03:17:54;;;;;;;298.15;66.20;;;;;;;;;;5104467;28;20271;-90
2022/04/06 03:20:22;;;;;;;300.15;67.57;;;;;;;;;;5104154;28;20198;-89
2022/04/06 03:22:48;;;;;;;305.77;65.45;;;;;;;;;;5103895;28;20244;-89
2022/04/06 03:25:15;;;;;;;301.63;68.55;;;;;;;;;;5103725;28;20199;-89
2022/04/06 03:27:41;;;;;;;310.65;67.88;;;;;;;;;;5103953;28;20263;-89
2022/04/06 03:30:11;;;;;;;310.48;69.20;;;;;;;;;;5101949;28;20224;-90
2022/04/06 03:32:37;;;;;;;300.42;63.40;;;;;;;;;;5102688;28;20205;-89
2022/04/06 03:35:04;;;;;;;306.48;68.22;;;;;;;;;;5103713;28;20264;-89
2022/04/06 03:37:32;;;;;;;301.88;66.80;;;;;;;;;;5104036;28;20211;-89
2022/04/06 03:39:59;;;;;;;308.85;67.22;;;;;;;;;;5102151;28;20256;-89
2022/04/06 03:42:25;;;;;;;301.73;64.95;;;;;;;;;;5102862;28;20259;-90
2022/04/06 03:44:52;;;;;;;297.92;65.95;;;;;;;;;;5103453;28;20190;-90
2022/04/06 03:47:19;;;;;;;298.25;65.32;;;;;;;;;;5103813;28;20198;-90
2022/04/06 03:49:45;;;;;;;310.60;66.25;;;;;;;;;;5102479;28;20228;-90
2022/04/06 03:52:11;;;;;;;304.42;66.38;;;;;;;;;;5102419;28;20203;-90
2022/04/06 03:54:40;;;;;;;307.00;66.00;;;;;;;;;;5103437;28;20227;-90
2022/04/06 03:57:07;;;;;;;302.40;67.25;;;;;;;;;;5103457;28;20249;-90
2022/04/06 03:59:33;;;;;;;307.05;62.83;;;;;;;;;;5103466;28;20202;-89
2022/04/06 04:02:00;;;;;;;303.85;65.47;;;;;;;;;;5103678;28;20220;-89
2022/04/06 04:04:28;;;;;;;302.30;62.95;;;;;;;;;;5103373;28;20656;-89
2022/04/06 04:06:54;;;;;;;300.05;66.07;;;;;;;;;;5103517;28;20205;-89
2022/04/06 04:09:21;;;;;;;307.55;66.05;;;;;;;;;;5103712;28;20203;-90
2022/04/06 04:11:48;;;;;;;298.30;63.35;;;;;;;;;;5103481;28;20229;-90
2022/04/06 04:14:15;;;;;;;312.85;66.00;;;;;;;;;;5103517;28;20226;-90
2022/04/06 04:16:41;;;;;;;304.70;64.28;;;;;;;;;;5103784;28;20203;-90
2022/04/06 04:19:08;;;;;;;298.25;65.82;;;;;;;;;;5102498;28;20224;-89
2022/04/06 04:21:34;;;;;;;306.92;66.30;;;;;;;;;;5102360;28;20248;-89
2022/04/06 04:24:01;;;;;;;299.45;65.25;;;;;;;;;;5102738;28;20195;-89
2022/04/06 04:26:28;;;;;;;300.73;67.10;;;;;;;;;;5102315;28;20195;-89
2022/04/06 04:28:56;;;;;;;301.42;65.88;;;;;;;;;;5103147;28;20203;-90
2022/04/06 04:31:22;;;;;;;317.95;68.20;;;;;;;;;;5103385;28;20212;-89
2022/04/06 04:33:49;;;;;;;303.00;65.95;;;;;;;;;;5102828;28;20264;-89
2022/04/06 04:36:16;;;;;;;311.58;68.82;;;;;;;;;;5102189;28;20199;-89
2022/04/06 04:38:43;;;;;;;313.50;70.53;;;;;;;;;;5102793;28;20262;-89
2022/04/06 04:41:09;;;;;;;324.80;68.75;;;;;;;;;;5102199;28;20267;-90
2022/04/06 04:43:36;;;;;;;305.52;67.20;;;;;;;;;;5102228;28;20259;-89
2022/04/06 04:46:04;;;;;;;301.23;65.90;;;;;;;;;;5101489;28;20194;-89
2022/04/06 04:48:31;;;;;;;311.02;67.07;;;;;;;;;;5101314;28;20187;-90
2022/04/06 04:50:58;;;;;;;308.35;67.72;;;;;;;;;;5101158;28;20283;-90
2022/04/06 04:53:25;;;;;;;313.45;70.10;;;;;;;;;;5094457;28;20213;-90
2022/04/06 04:55:52;;;;;;;314.73;69.00;;;;;;;;;;5092255;28;20293;-90
2022/04/06 04:58:19;;;;;;;318.33;70.40;;;;;;;;;;5100902;28;20638;-90
2022/04/06 05:00:46;;;;;;;312.52;70.05;;;;;;;;;;5101169;28;20198;-90
2022/04/06 05:03:14;;;;;;;310.75;65.70;;;;;;;;;;5101635;28;20206;-90
2022/04/06 05:05:43;;;;;;;324.80;70.60;;;;;;;;;;5101684;28;20252;-89
2022/04/06 05:08:09;;;;;;;315.02;69.95;;;;;;;;;;5101912;28;20206;-89
2022/04/06 05:10:36;;;;;;;325.77;69.82;;;;;;;;;;5101752;28;20207;-89
2022/04/06 05:13:03;;;;;;;326.05;67.82;;;;;;;;;;5102460;28;20217;-89
2022/04/06 05:15:30;;;;;;;322.65;69.57;;;;;;;;;;5101922;28;20225;-89
2022/04/06 05:17:56;;;;;;;325.08;72.60;;;;;;;;;;5101967;28;20574;-89
2022/04/06 05:20:24;;;;;;;324.40;70.15;;;;;;;;;;5100843;28;20187;-89
2022/04/06 05:22:51;;;;;;;323.02;70.43;;;;;;;;;;5101230;28;20199;-89
2022/04/06 05:25:17;;;;;;;326.27;70.00;;;;;;;;;;5101773;28;20737;-89
2022/04/06 05:27:44;;;;;;;322.35;68.97;;;;;;;;;;5101536;28;20195;-90
2022/04/06 05:30:11;;;;;;;338.77;73.15;;;;;;;;;;5100511;28;20194;-90
2022/04/06 05:32:38;;;;;;;336.60;71.80;;;;;;;;;;5100379;28;20264;-89
2022/04/06 05:35:06;;;;;;;352.33;78.25;;;;;;;;;;5101106;28;20227;-90
2022/04/06 05:37:35;;;;;;;347.05;75.28;;;;;;;;;;5101378;28;20286;-90
2022/04/06 05:40:01;;;;;;;349.08;77.45;;;;;;;;;;5102240;28;20853;-90
2022/04/06 05:42:28;;;;;;;343.50;75.28;;;;;;;;;;5105947;28;20203;-91
2022/04/06 05:44:54;;;;;;;345.15;76.22;;;;;;;;;;5106011;28;20198;-91
2022/04/06 05:47:21;;;;;;;350.83;77.07;;;;;;;;;;5106187;28;20198;-91
2022/04/06 05:49:47;;;;;;;345.25;75.55;;;;;;;;;;5105142;28;20582;-90
2022/04/06 05:52:14;;;;;;;349.65;78.75;;;;;;;;;;5105490;28;20232;-92
2022/04/06 05:54:41;;;;;;;349.88;78.70;;;;;;;;;;5103498;28;20226;-92
2022/04/06 05:57:08;;;;;;;358.73;81.22;;;;;;;;;;5102857;28;20199;-91
2022/04/06 05:59:36;;;;;;;348.65;78.20;;;;;;;;;;5104820;28;20224;-91
2022/04/06 06:02:03;;;;;;;347.40;78.53;;;;;;;;;;5104829;28;20205;-91
2022/04/06 06:04:29;;;;;;;351.85;78.05;;;;;;;;;;5103914;28;20675;-91
2022/04/06 06:06:57;;;;;;;349.05;78.50;;;;;;;;;;5104023;28;20198;-91
2022/04/06 06:09:23;;;;;;;355.52;83.47;;;;;;;;;;5100019;28;20613;-91
2022/04/06 06:11:51;;;;;;;358.70;83.10;;;;;;;;;;5099086;28;20263;-91
2022/04/06 06:14:18;;;;;;;366.42;86.05;;;;;;;;;;5097128;28;20276;-91
2022/04/06 06:16:45;;;;;;;350.75;76.32;;;;;;;;;;5100082;28;20218;-91
2022/04/06 06:19:11;;;;;;;363.38;80.10;;;;;;;;;;5103180;28;20221;-91
2022/04/06 06:21:38;;;;;;;356.02;80.15;;;;;;;;;;5103393;28;20195;-91
2022/04/06 06:24:06;;;;;;;363.98;78.40;;;;;;;;;;5104092;28;20202;-90
2022/04/06 06:26:33;;;;;;;365.20;80.93;;;;;;;;;;5104210;28;20297;-90
2022/04/06 06:29:01;;;;;;;362.55;76.47;;;;;;;;;;5105067;28;20228;-90
2022/04/06 06:31:29;;;;;;;362.77;78.15;;;;;;;;;;5104519;28;20248;-91
2022/04/06 06:33:55;;;;;;;357.42;76.32;;;;;;;;;;5104089;28;20264;-90
2022/04/06 06:36:23;;;;;;;362.85;81.32;;;;;;;;;;5102703;28;20248;-90
2022/04/06 06:38:49;;;;;;;378.08;83.53;;;;;;;;;;5102371;28;20255;-91
2022/04/06 06:41:16;;;;;;;375.02;83.95;;;;;;;;;;5098968;28;20232;-90
2022/04/06 06:43:42;;;;;;;374.83;86.60;;;;;;;;;;5097845;28;20214;-90
2022/04/06 06:46:11;;;;;;;373.20;84.00;;;;;;;;;;5097414;28;20199;-91
2022/04/06 06:48:38;;;;;;;383.67;85.47;;;;;;;;;;5096467;28;20259;-94
2022/04/06 06:51:05;;;;;;;395.15;89.55;;;;;;;;;;5097456;28;20221;-93
2022/04/06 06:53:31;;;;;;;393.05;90.70;;;;;;;;;;5098025;28;20220;-92
2022/04/06 06:55:58;;;;;;;387.95;91.72;;;;;;;;;;5095893;28;20299;-93
2022/04/06 06:58:24;;;;;;;394.38;91.60;;;;;;;;;;5096493;28;20236;-93
2022/04/06 07:00:51;;;;;;;397.02;91.72;;;;;;;;;;5098468;28;20191;-92
2022/04/06 07:03:18;;;;;;;389.00;88.13;;;;;;;;;;5099252;28;20249;-91
2022/04/06 07:05:45;;;;;;;398.67;90.57;;;;;;;;;;5096048;28;20228;-94
2022/04/06 07:08:12;;;;;;;413.27;99.97;;;;;;;;;;5095847;28;20266;-93
2022/04/06 07:10:38;;;;;;;400.60;91.03;;;;;;;;;;5097392;28;20187;-92
2022/04/06 07:13:05;;;;;;;395.77;92.93;;;;;;;;;;5100411;28;20206;-91
2022/04/06 07:15:31;;;;;;;404.38;97.13;;;;;;;;;;5098384;28;20226;-93
2022/04/06 07:17:58;;;;;;;409.30;93.88;;;;;;;;;;5100437;28;20235;-93
2022/04/06 07:20:28;;;;;;;399.80;93.90;;;;;;;;;;5104255;28;20194;-93
2022/04/06 07:22:54;;;;;;;402.95;93.93;;;;;;;;;;5104235;28;20281;-93
2022/04/06 07:25:21;;;;;;;413.52;98.53;;;;;;;;;;5103667;28;20220;-93
2022/04/06 07:27:48;;;;;;;417.42;103.63;;;;;;;;;;5103776;28;20229;-92
2022/04/06 07:30:14;;;;;;;413.35;102.03;;;;;;;;;;5103829;28;20699;-93
2022/04/06 07:32:41;;;;;;;419.67;107.07;;;;;;;;;;5103917;28;20211;-92
2022/04/06 07:35:08;;;;;;;419.83;106.25;;;;;;;;;;5103487;28;20268;-93
2022/04/06 07:37:40;;;;;;;415.55;104.53;;;;;;;;;;5103261;28;20217;-92
2022/04/06 07:40:08;;;;;;;420.98;106.35;;;;;;;;;;5103530;28;20195;-93
2022/04/06 07:42:35;;;;;;;418.92;106.78;;;;;;;;;;5103505;28;20198;-93
2022/04/06 07:45:02;;;;;;;429.90;111.50;;;;;;;;;;5102276;28;20258;-91
2022/04/06 07:47:30;;;;;;;416.33;104.00;;;;;;;;;;5102215;28;20195;-91
2022/04/06 07:49:57;;;;;;;414.08;101.13;;;;;;;;;;5104193;28;20205;-93
2022/04/06 07:52:24;;;;;;;419.45;109.45;;;;;;;;;;5103884;28;20199;-93
2022/04/06 07:54:51;;;;;;;424.67;107.88;;;;;;;;;;5103200;28;20761;-90
2022/04/06 07:57:20;;;;;;;427.80;109.97;;;;;;;;;;5102893;28;20217;-93
2022/04/06 07:59:47;;;;;;;435.23;115.85;;;;;;;;;;5102841;28;20217;-92
2022/04/06 08:02:13;;;;;;;433.80;114.97;;;;;;;;;;5104339;28;20199;-94
2022/04/06 08:04:39;;;;;;;440.38;120.55;;;;;;;;;;5103221;28;20207;-93
2022/04/06 08:07:06;;;;;;;437.43;114.57;;;;;;;;;;5103826;28;20198;-92
2022/04/06 08:09:32;;;;;;;444.27;122.63;;;;;;;;;;5103547;28;20456;-94
2022/04/06 08:12:00;;;;;;;450.65;125.45;;;;;;;;;;5103678;28;20202;-92
2022/04/06 08:14:27;;;;;;;455.87;130.43;;;;;;;;;;5102492;28;20190;-95
2022/04/06 08:16:55;;;;;;;461.52;135.93;;;;;;;;;;5102845;28;20445;-96
2022/04/06 08:19:22;;;;;;;459.23;129.47;;;;;;;;;;5102956;28;20187;-94
2022/04/06 08:21:49;;;;;;;463.70;135.93;;;;;;;;;;5100313;28;20451;-91
2022/04/06 08:24:15;;;;;;;467.37;139.87;;;;;;;;;;5095512;28;20465;-92
2022/04/06 08:26:41;;;;;;;474.60;155.00;;;;;;;;;;5095941;28;20842;-94
2022/04/06 08:29:10;;;;;;;467.17;139.73;;;;;;;;;;5098204;28;20440;-94
2022/04/06 08:31:36;;;;;;;448.47;135.73;;;;;;;;;;5096972;28;20501;-93
2022/04/06 08:34:05;;;;;;;454.47;141.60;;;;;;;;;;5094900;28;20480;-93
2022/04/06 08:36:32;;;;;;;462.73;140.23;;;;;;;;;;5092270;28;20484;-93
2022/04/06 08:39:01;;;;;;;473.77;149.97;;;;;;;;;;5092689;28;20887;-90
2022/04/06 08:41:29;;;;;;;480.03;163.60;;;;;;;;;;5089026;28;20448;-94
2022/04/06 08:43:55;;;;;;;475.87;157.07;;;;;;;;;;5088823;28;20459;-92
2022/04/06 08:46:23;;;;;;;460.67;149.30;;;;;;;;;;5091035;28;21023;-91
2022/04/06 08:48:51;;;;;;;460.53;149.67;;;;;;;;;;5095545;28;20527;-93
2022/04/06 08:51:18;;;;;;;462.60;151.87;;;;;;;;;;5097061;28;20821;-94
2022/04/06 08:53:46;;;;;;;464.20;155.20;;;;;;;;;;5096108;28;20459;-92
2022/04/06 08:56:13;;;;;;;460.07;148.20;;;;;;;;;;5098277;28;20560;-94
2022/04/06 08:58:39;;;;;;;462.70;149.77;;;;;;;;;;5102506;28;20811;-91
2022/04/06 09:01:06;;;;;;;455.17;147.80;;;;;;;;;;5102926;28;20445;-94
2022/04/06 09:03:34;;;;;;;467.67;146.37;;;;;;;;;;5103371;28;20440;-91
2022/04/06 09:06:01;;;;;;;467.67;151.73;;;;;;;;;;5100608;28;20505;-94
2022/04/06 09:08:34;;;;;;;460.07;151.47;;;;;;;;;;5082528;28;20488;-92
2022/04/06 09:11:06;;;;;;;460.37;150.00;;;;;;;;;;5091977;28;20444;-92
2022/04/06 09:13:32;;;;;;;468.83;153.27;;;;;;;;;;5082372;28;21003;-92
2022/04/06 09:16:00;;;;;;;460.37;157.43;;;;;;;;;;5085169;28;21104;-92
2022/04/06 09:18:34;;;;;;;468.50;161.13;;;;;;;;;;5105520;28;20433;-92
2022/04/06 09:21:01;;;;;;;469.40;163.07;;;;;;;;;;5105138;28;20508;-93
2022/04/06 09:23:29;;;;;;;475.90;170.60;;;;;;;;;;5099255;28;20487;-94
2022/04/06 09:25:55;;;;;;;476.13;175.57;;;;;;;;;;5103858;28;20453;-91
2022/04/06 09:28:22;;;;;;;473.47;177.07;;;;;;;;;;5105927;28;20463;-94
2022/04/06 09:30:48;;;;;;;470.33;169.77;;;;;;;;;;5105649;28;20474;-91
2022/04/06 09:33:16;;;;;;;484.27;183.30;;;;;;;;;;5105757;28;20498;-92
2022/04/06 09:35:44;;;;;;;478.30;179.70;;;;;;;;;;5104879;28;20487;-90
2022/04/06 09:38:15;;;;;;;486.70;179.83;;;;;;;;;;5105116;28;20453;-91
2022/04/06 09:40:42;;;;;;;501.93;190.50;;;;;;;;;;5105107;28;20445;-94
2022/04/06 09:43:09;;;;;;;452.80;163.27;;;;;;;;;;5105785;28;20441;-91
2022/04/06 09:48:19;;;;;;;455.30;166.23;;;;;;;;;;5106191;28;20455;-94
2022/04/06 09:50:57;;;;;;;462.27;187.57;;;;;;;;;;5105435;28;20445;-91
2022/04/06 09:53:25;;;;;;;461.73;181.83;;;;;;;;;;5105099;28;20444;-93
2022/04/06 09:55:53;;;;;;;466.97;196.13;;;;;;;;;;5105170;28;21009;-91
2022/04/06 09:58:21;;;;;;;463.97;188.63;;;;;;;;;;5105186;28;20513;-93
2022/04/06 10:00:48;;;;;;;462.47;168.23;;;;;;;;;;5105465;28;20441;-91
2022/04/06 10:03:15;;;;;;;469.57;197.13;;;;;;;;;;5105650;28;20453;-91
2022/04/06 10:05:42;;;;;;;464.73;192.93;;;;;;;;;;5106633;28;20447;-92
2022/04/06 10:08:11;;;;;;;461.93;189.30;;;;;;;;;;5106047;28;20482;-94
2022/04/06 10:10:39;;;;;;;467.00;193.20;;;;;;;;;;5105795;28;20447;-90
2022/04/06 10:13:07;;;;;;;473.70;202.90;;;;;;;;;;5105953;28;21034;-91
2022/04/06 10:15:35;;;;;;;474.10;204.70;;;;;;;;;;5106155;28;20577;-91
2022/04/06 10:18:01;;;;;;;470.93;202.23;;;;;;;;;;5105487;28;20472;-91
2022/04/06 10:20:30;;;;;;;481.83;214.07;;;;;;;;;;5103580;28;20443;-91
2022/04/06 10:23:20;;;;;;;483.27;217.13;;;;;;;;;;5097814;28;20446;-92
2022/04/06 10:28:46;;;;;;;476.97;202.50;;;;;;;;;;5100180;28;20441;-92
2022/04/06 10:31:17;;;;;;;475.27;192.47;;;;;;;;;;5100774;28;20470;-94
2022/04/06 10:33:43;;;;;;;476.60;197.97;;;;;;;;;;5102223;28;20540;-91
2022/04/06 10:36:17;;;;;;;493.27;230.77;;;;;;;;;;5101507;28;20517;-91
2022/04/06 10:38:58;;;;;;;488.13;215.60;;;;;;;;;;5096953;28;21012;-91
2022/04/06 10:41:25;;;;;;;497.97;231.43;;;;;;;;;;5093598;28;20491;-92
2022/04/06 10:43:53;;;;;;;494.47;217.37;;;;;;;;;;5092748;28;20487;-92
2022/04/06 10:46:33;;;;;;;495.03;219.33;;;;;;;;;;5093453;28;20454;-93
2022/04/06 10:48:59;;;;;;;490.17;227.70;;;;;;;;;;5100785;28;20546;-93
2022/04/06 10:51:33;;;;;;;494.77;236.73;;;;;;;;;;5086516;28;20480;-91
2022/04/06 10:53:59;;;;;;;496.70;239.80;;;;;;;;;;5101031;28;20457;-92
2022/04/06 10:56:25;;;;;;;492.23;224.57;;;;;;;;;;5103740;28;20490;-90
2022/04/06 10:59:10;;;;;;;490.43;219.27;;;;;;;;;;5104999;28;20441;-90
2022/04/06 11:01:38;;;;;;;495.77;241.80;;;;;;;;;;5105070;28;20521;-92
2022/04/06 11:04:08;;;;;;;506.50;249.00;;;;;;;;;;5104320;28;20441;-93
2022/04/06 11:06:53;;;;;;;498.37;233.17;;;;;;;;;;5103181;28;20528;-92
2022/04/06 11:12:12;;;;;;;504.47;235.40;;;;;;;;;;5103480;28;20514;-92
2022/04/06 11:14:40;;;;;;;513.67;264.00;;;;;;;;;;5105459;28;20475;-91
2022/04/06 11:17:32;;;;;;;519.00;258.43;;;;;;;;;;5104803;28;20486;-92
2022/04/06 11:19:59;;;;;;;515.77;263.50;;;;;;;;;;5088950;28;20462;-91
2022/04/06 11:22:25;;;;;;;514.00;250.60;;;;;;;;;;5103625;28;20446;-91
2022/04/06 11:24:54;;;;;;;516.63;249.53;;;;;;;;;;5103670;28;20468;-92
2022/04/06 11:27:30;;;;;;;518.43;263.83;;;;;;;;;;5103302;28;20478;-91
2022/04/06 11:30:01;;;;;;;526.30;280.07;;;;;;;;;;5103782;28;20517;-91
2022/04/06 11:32:28;;;;;;;521.27;271.53;;;;;;;;;;5103631;28;20445;-91
2022/04/06 11:34:59;;;;;;;524.43;272.17;;;;;;;;;;5103811;28;20515;-91
2022/04/06 11:37:25;;;;;;;534.90;293.00;;;;;;;;;;5103445;28;20525;-95
2022/04/06 11:39:56;;;;;;;543.53;307.03;;;;;;;;;;5102459;28;20445;-91
2022/04/06 11:42:22;;;;;;;549.00;311.27;;;;;;;;;;5102843;28;20445;-93
2022/04/06 11:44:48;;;;;;;557.93;317.90;;;;;;;;;;5104021;28;20445;-90
2022/04/06 11:47:16;;;;;;;557.27;336.60;;;;;;;;;;5103662;28;20477;-89
2022/04/06 11:49:43;;;;;;;713.03;547.77;;;;;;;;;;5103515;28;20451;-90
2022/04/06 11:52:09;;;;;;;498.73;242.17;;;;;;;;;;5103484;28;20497;-91
2022/04/06 11:54:39;;;;;;;507.77;253.47;;;;;;;;;;5103762;28;20517;-90
2022/04/06 11:57:06;;;;;;;601.20;397.67;;;;;;;;;;5103670;28;20521;-93
2022/04/06 11:59:33;;;;;;;523.00;274.63;;;;;;;;;;5102366;28;20459;-91
2022/04/06 12:02:00;;;;;;;640.30;461.30;;;;;;;;;;5103855;28;20499;-93
2022/04/06 12:04:28;;;;;;;528.27;276.53;;;;;;;;;;5103045;28;20512;-90
2022/04/06 12:06:55;;;;;;;569.43;335.03;;;;;;;;;;5103461;28;20495;-91
2022/04/06 12:09:24;;;;;;;536.17;288.37;;;;;;;;;;5103585;28;20452;-93
2022/04/06 12:11:51;;;;;;;539.87;297.13;;;;;;;;;;5103589;28;20449;-91
2022/04/06 12:14:19;;;;;;;536.57;293.17;;;;;;;;;;5103704;28;20472;-92
2022/04/06 12:16:45;;;;;;;532.07;288.07;;;;;;;;;;5103426;28;20494;-90
2022/04/06 12:19:15;;;;;;;559.10;322.80;;;;;;;;;;5103732;28;20441;-92
2022/04/06 12:21:44;;;;;;;610.57;395.17;;;;;;;;;;5103487;28;20451;-90
2022/04/06 12:24:11;;;;;;;570.27;344.87;;;;;;;;;;5103517;28;20449;-91
2022/04/06 12:26:41;;;;;;;562.37;323.57;;;;;;;;;;5102554;28;20930;-90
2022/04/06 12:29:11;;;;;;;549.03;307.70;;;;;;;;;;5103020;28;20498;-92
2022/04/06 12:31:40;;;;;;;545.07;312.60;;;;;;;;;;5102131;28;20472;-91
2022/04/06 12:34:08;;;;;;;571.63;337.50;;;;;;;;;;5102494;28;20480;-90
2022/04/06 12:36:34;;;;;;;562.17;333.20;;;;;;;;;;5103036;28;20484;-91
2022/04/06 12:39:04;;;;;;;520.13;265.77;;;;;;;;;;5103006;28;20437;-90
2022/04/06 12:41:32;;;;;;;551.50;293.53;;;;;;;;;;5103222;28;20514;-92
2022/04/06 12:44:00;;;;;;;520.53;259.63;;;;;;;;;;5103646;28;20444;-91
2022/04/06 12:46:36;;;;;;;545.57;292.20;;;;;;;;;;5103734;28;20456;-90
2022/04/06 12:49:22;;;;;;;554.33;323.30;;;;;;;;;;5102735;28;20510;-92
2022/04/06 12:52:01;;;;;;;523.20;256.73;;;;;;;;;;5105947;28;20942;-92
2022/04/06 12:54:31;;;;;;;558.63;317.83;;;;;;;;;;5105453;28;20561;-91
2022/04/06 12:57:08;;;;;;;527.20;269.63;;;;;;;;;;5105021;28;20492;-94
2022/04/06 12:59:38;;;;;;;556.03;323.87;;;;;;;;;;5107239;28;20536;-91
2022/04/06 13:02:05;;;;;;;549.57;299.27;;;;;;;;;;5107458;28;20472;-90
2022/04/06 13:04:31;;;;;;;555.00;311.27;;;;;;;;;;5106576;28;20463;-91
2022/04/06 13:06:58;;;;;;;553.93;302.70;;;;;;;;;;5105539;28;20981;-92
2022/04/06 13:09:24;;;;;;;553.10;288.20;;;;;;;;;;5106118;28;20522;-92
2022/04/06 13:11:52;;;;;;;571.23;308.80;;;;;;;;;;5105769;28;20499;-93
2022/04/06 13:14:20;;;;;;;639.83;460.37;;;;;;;;;;5102783;28;20440;-92
2022/04/06 13:16:47;;;;;;;559.77;303.17;;;;;;;;;;5100761;28;20930;-92
2022/04/06 13:19:15;;;;;;;642.93;464.27;;;;;;;;;;5100993;28;20440;-93
2022/04/06 13:21:41;;;;;;;556.50;300.97;;;;;;;;;;5107224;28;20989;-92
2022/04/06 13:24:08;;;;;;;777.15;599.20;;;;;;;;;;5106077;28;20510;-93
2022/04/06 13:26:34;;;;;;;818.72;673.13;;;;;;;;;;5105343;28;20232;-89
2022/04/06 13:29:02;;;;;;;791.05;619.03;;;;;;;;;;5102203;28;20216;-90
2022/04/06 13:31:29;;;;;;;775.08;594.33;;;;;;;;;;5101137;28;20270;-92
2022/04/06 13:33:55;;;;;;;774.95;587.13;;;;;;;;;;5101479;28;21059;-90
2022/04/06 13:36:22;;;;;;;762.28;576.75;;;;;;;;;;5102316;28;20280;-91
2022/04/06 13:38:48;;;;;;;750.50;537.08;;;;;;;;;;5102155;28;20199;-92
2022/04/06 13:41:15;;;;;;;754.47;561.33;;;;;;;;;;5101827;28;20842;-91
2022/04/06 13:43:42;;;;;;;763.20;568.47;;;;;;;;;;5103343;28;20224;-91
2022/04/06 13:46:10;;;;;;;764.03;593.05;;;;;;;;;;5106626;28;20202;-91
2022/04/06 13:48:36;;;;;;;769.05;593.25;;;;;;;;;;5106290;28;20190;-91
2022/04/06 13:51:05;;;;;;;746.13;542.28;;;;;;;;;;5105652;28;20789;-93
2022/04/06 13:53:32;;;;;;;747.15;563.15;;;;;;;;;;5105978;28;20191;-91
2022/04/06 13:55:58;;;;;;;754.05;575.67;;;;;;;;;;5106394;28;20203;-90
2022/04/06 13:58:25;;;;;;;735.53;511.70;;;;;;;;;;5105883;28;20191;-94
2022/04/06 14:00:51;;;;;;;764.03;555.10;;;;;;;;;;5097531;28;20199;-93
2022/04/06 14:03:20;;;;;;;774.85;618.20;;;;;;;;;;5087125;28;20219;-92
2022/04/06 14:05:48;;;;;;;752.38;558.47;;;;;;;;;;5104793;28;20222;-91
2022/04/06 14:08:14;;;;;;;761.35;555.20;;;;;;;;;;5105148;28;20198;-91
2022/04/06 14:10:41;;;;;;;767.17;582.65;;;;;;;;;;5105018;28;20203;-92
2022/04/06 14:13:07;;;;;;;757.38;525.83;;;;;;;;;;5105073;28;20198;-90